sensor_id;sensor_type;location;lat;lon;timestamp;temperature;humidity
4056;DHT22;2043;52.184;8.690;2023-04-06T00:00:59;1.30;96.80
4056;DHT22;2043;52.184;8.690;2023-04-06T00:03:26;1.20;97.10
4056;DHT22;2043;52.184;8.690;2023-04-06T00:05:53;1.10;97.10
4056;DHT22;2043;52.184;8.690;2023-04-06T00:08:19;1.00;97.60
4056;DHT22;2043;52.184;8.690;2023-04-06T00:10:47;1.00;97.90
4056;DHT22;2043;52.184;8.690;2023-04-06T00:15:42;1.00;97.90
4056;DHT22;2043;52.184;8.690;2023-04-06T00:18:08;1.00;97.90
4056;DHT22;2043;52.184;8.690;2023-04-06T00:20:35;0.90;98.00
4056;DHT22;2043;52.184;8.690;2023-04-06T00:23:02;0.90;98.20
4056;DHT22;2043;52.184;8.690;2023-04-06T00:27:56;1.20;97.80
4056;DHT22;2043;52.184;8.690;2023-04-06T00:32:51;1.40;97.40
4056;DHT22;2043;52.184;8.690;2023-04-06T00:35:18;1.50;97.20
4056;DHT22;2043;52.184;8.690;2023-04-06T00:37:46;1.60;96.80
4056;DHT22;2043;52.184;8.690;2023-04-06T00:40:14;1.50;96.40
4056;DHT22;2043;52.184;8.690;2023-04-06T00:42:42;1.50;96.70
4056;DHT22;2043;52.184;8.690;2023-04-06T00:45:09;1.50;97.50
4056;DHT22;2043;52.184;8.690;2023-04-06T00:47:36;1.70;97.50
4056;DHT22;2043;52.184;8.690;2023-04-06T00:50:03;1.70;97.40
4056;DHT22;2043;52.184;8.690;2023-04-06T00:52:30;1.80;97.00
4056;DHT22;2043;52.184;8.690;2023-04-06T00:54:57;1.90;96.60
4056;DHT22;2043;52.184;8.690;2023-04-06T00:57:24;2.00;96.50
4056;DHT22;2043;52.184;8.690;2023-04-06T00:59:52;2.00;96.20
4056;DHT22;2043;52.184;8.690;2023-04-06T01:02:19;2.00;95.90
4056;DHT22;2043;52.184;8.690;2023-04-06T01:04:46;1.90;95.30
4056;DHT22;2043;52.184;8.690;2023-04-06T01:07:13;2.00;95.60
4056;DHT22;2043;52.184;8.690;2023-04-06T01:09:39;1.90;95.60
4056;DHT22;2043;52.184;8.690;2023-04-06T01:12:08;1.80;95.60
4056;DHT22;2043;52.184;8.690;2023-04-06T01:14:35;1.80;95.80
4056;DHT22;2043;52.184;8.690;2023-04-06T01:17:02;1.60;95.60
4056;DHT22;2043;52.184;8.690;2023-04-06T01:19:29;1.60;96.10
4056;DHT22;2043;52.184;8.690;2023-04-06T01:24:23;1.50;96.30
4056;DHT22;2043;52.184;8.690;2023-04-06T01:26:50;1.60;96.30
4056;DHT22;2043;52.184;8.690;2023-04-06T01:29:17;1.50;96.20
4056;DHT22;2043;52.184;8.690;2023-04-06T01:34:11;1.20;96.40
4056;DHT22;2043;52.184;8.690;2023-04-06T01:36:38;1.20;96.60
4056;DHT22;2043;52.184;8.690;2023-04-06T01:39:04;1.10;96.70
4056;DHT22;2043;52.184;8.690;2023-04-06T01:41:32;1.00;96.70
4056;DHT22;2043;52.184;8.690;2023-04-06T01:43:58;1.00;97.00
4056;DHT22;2043;52.184;8.690;2023-04-06T01:46:25;1.10;96.90
4056;DHT22;2043;52.184;8.690;2023-04-06T01:51:20;1.10;96.70
4056;DHT22;2043;52.184;8.690;2023-04-06T01:53:46;1.20;96.70
4056;DHT22;2043;52.184;8.690;2023-04-06T01:56:14;1.30;96.80
4056;DHT22;2043;52.184;8.690;2023-04-06T01:58:41;1.40;96.70
4056;DHT22;2043;52.184;8.690;2023-04-06T02:01:08;1.40;96.80
4056;DHT22;2043;52.184;8.690;2023-04-06T02:03:36;1.50;96.70
4056;DHT22;2043;52.184;8.690;2023-04-06T02:06:03;1.50;96.50
4056;DHT22;2043;52.184;8.690;2023-04-06T02:08:30;1.50;96.40
4056;DHT22;2043;52.184;8.690;2023-04-06T02:13:24;1.50;96.50
4056;DHT22;2043;52.184;8.690;2023-04-06T02:15:51;1.50;96.40
4056;DHT22;2043;52.184;8.690;2023-04-06T02:18:18;1.60;96.40
4056;DHT22;2043;52.184;8.690;2023-04-06T02:20:45;1.50;96.40
4056;DHT22;2043;52.184;8.690;2023-04-06T02:23:12;1.50;96.30
4056;DHT22;2043;52.184;8.690;2023-04-06T02:25:39;1.60;96.40
4056;DHT22;2043;52.184;8.690;2023-04-06T02:28:06;1.60;96.10
4056;DHT22;2043;52.184;8.690;2023-04-06T02:30:34;1.50;96.10
4056;DHT22;2043;52.184;8.690;2023-04-06T02:33:01;1.40;96.20
4056;DHT22;2043;52.184;8.690;2023-04-06T02:35:29;1.40;96.20
4056;DHT22;2043;52.184;8.690;2023-04-06T02:37:56;1.40;96.60
4056;DHT22;2043;52.184;8.690;2023-04-06T02:42:51;1.30;97.00
4056;DHT22;2043;52.184;8.690;2023-04-06T02:45:17;1.30;97.00
4056;DHT22;2043;52.184;8.690;2023-04-06T02:47:44;1.20;96.60
4056;DHT22;2043;52.184;8.690;2023-04-06T02:50:11;1.00;96.30
4056;DHT22;2043;52.184;8.690;2023-04-06T02:55:06;0.80;97.20
4056;DHT22;2043;52.184;8.690;2023-04-06T03:00:01;0.60;97.30
4056;DHT22;2043;52.184;8.690;2023-04-06T03:02:28;0.50;97.70
4056;DHT22;2043;52.184;8.690;2023-04-06T03:04:56;0.40;97.50
4056;DHT22;2043;52.184;8.690;2023-04-06T03:07:23;0.30;98.00
4056;DHT22;2043;52.184;8.690;2023-04-06T03:09:49;0.20;98.70
4056;DHT22;2043;52.184;8.690;2023-04-06T03:12:16;0.20;99.10
4056;DHT22;2043;52.184;8.690;2023-04-06T03:14:43;0.30;99.30
4056;DHT22;2043;52.184;8.690;2023-04-06T03:24:32;0.30;98.40
4056;DHT22;2043;52.184;8.690;2023-04-06T03:31:54;0.20;99.00
4056;DHT22;2043;52.184;8.690;2023-04-06T03:34:21;0.10;99.20
4056;DHT22;2043;52.184;8.690;2023-04-06T03:36:48;0.10;99.50
4056;DHT22;2043;52.184;8.690;2023-04-06T03:39:32;0.10;99.50
4056;DHT22;2043;52.184;8.690;2023-04-06T03:41:59;0.00;99.40
4056;DHT22;2043;52.184;8.690;2023-04-06T03:46:53;0.20;99.90
4056;DHT22;2043;52.184;8.690;2023-04-06T03:49:20;0.20;99.60
4056;DHT22;2043;52.184;8.690;2023-04-06T03:56:41;0.30;99.40
4056;DHT22;2043;52.184;8.690;2023-04-06T04:01:36;0.20;99.40
4056;DHT22;2043;52.184;8.690;2023-04-06T04:06:30;0.10;99.20
4056;DHT22;2043;52.184;8.690;2023-04-06T04:13:51;-0.40;99.70
4056;DHT22;2043;52.184;8.690;2023-04-06T04:21:13;-0.50;99.90
4056;DHT22;2043;52.184;8.690;2023-04-06T04:28:35;-0.70;99.90
4056;DHT22;2043;52.184;8.690;2023-04-06T04:35:56;-0.90;99.90
4056;DHT22;2043;52.184;8.690;2023-04-06T04:38:23;-0.90;99.90
4056;DHT22;2043;52.184;8.690;2023-04-06T04:43:17;-0.70;99.90
4056;DHT22;2043;52.184;8.690;2023-04-06T04:48:11;-0.70;99.90
4056;DHT22;2043;52.184;8.690;2023-04-06T04:50:38;-0.70;99.90
4056;DHT22;2043;52.184;8.690;2023-04-06T05:02:54;-0.60;99.90
4056;DHT22;2043;52.184;8.690;2023-04-06T05:05:21;-0.50;99.90
4056;DHT22;2043;52.184;8.690;2023-04-06T05:07:48;-0.40;99.90
4056;DHT22;2043;52.184;8.690;2023-04-06T05:15:09;0.00;99.90
4056;DHT22;2043;52.184;8.690;2023-04-06T05:17:36;0.00;99.90
4056;DHT22;2043;52.184;8.690;2023-04-06T05:20:04;0.00;99.90
4056;DHT22;2043;52.184;8.690;2023-04-06T05:24:58;0.10;99.90
4056;DHT22;2043;52.184;8.690;2023-04-06T05:27:25;0.20;99.90
4056;DHT22;2043;52.184;8.690;2023-04-06T05:32:21;0.30;99.90
4056;DHT22;2043;52.184;8.690;2023-04-06T05:34:49;0.30;99.80
4056;DHT22;2043;52.184;8.690;2023-04-06T05:37:16;0.20;99.20
4056;DHT22;2043;52.184;8.690;2023-04-06T05:39:43;0.10;99.30
4056;DHT22;2043;52.184;8.690;2023-04-06T05:42:10;0.10;99.70
4056;DHT22;2043;52.184;8.690;2023-04-06T05:44:37;0.10;99.80
4056;DHT22;2043;52.184;8.690;2023-04-06T05:47:05;0.20;99.70
4056;DHT22;2043;52.184;8.690;2023-04-06T05:49:31;0.20;99.70
4056;DHT22;2043;52.184;8.690;2023-04-06T05:51:58;0.30;99.80
4056;DHT22;2043;52.184;8.690;2023-04-06T05:54:25;0.20;99.70
4056;DHT22;2043;52.184;8.690;2023-04-06T05:56:52;0.30;99.90
4056;DHT22;2043;52.184;8.690;2023-04-06T06:06:41;2.90;95.30
4056;DHT22;2043;52.184;8.690;2023-04-06T06:09:08;4.10;92.10
4056;DHT22;2043;52.184;8.690;2023-04-06T06:11:35;5.10;89.20
4056;DHT22;2043;52.184;8.690;2023-04-06T06:14:03;6.30;86.40
4056;DHT22;2043;52.184;8.690;2023-04-06T06:16:30;7.40;83.00
4056;DHT22;2043;52.184;8.690;2023-04-06T06:18:57;8.10;80.70
4056;DHT22;2043;52.184;8.690;2023-04-06T06:21:24;8.70;79.00
4056;DHT22;2043;52.184;8.690;2023-04-06T06:23:51;9.30;78.00
4056;DHT22;2043;52.184;8.690;2023-04-06T06:28:45;9.90;75.70
4056;DHT22;2043;52.184;8.690;2023-04-06T06:31:11;10.00;75.40
4056;DHT22;2043;52.184;8.690;2023-04-06T06:33:38;10.40;74.50
4056;DHT22;2043;52.184;8.690;2023-04-06T06:36:05;10.40;74.00
4056;DHT22;2043;52.184;8.690;2023-04-06T06:38:32;11.00;73.20
4056;DHT22;2043;52.184;8.690;2023-04-06T06:40:59;11.50;72.10
4056;DHT22;2043;52.184;8.690;2023-04-06T06:43:26;11.50;71.70
4056;DHT22;2043;52.184;8.690;2023-04-06T06:45:53;11.90;71.20
4056;DHT22;2043;52.184;8.690;2023-04-06T06:48:20;12.30;70.60
4056;DHT22;2043;52.184;8.690;2023-04-06T06:50:48;12.10;69.80
4056;DHT22;2043;52.184;8.690;2023-04-06T06:53:15;11.70;70.80
4056;DHT22;2043;52.184;8.690;2023-04-06T06:55:42;11.30;70.80
4056;DHT22;2043;52.184;8.690;2023-04-06T06:58:10;11.20;71.50
4056;DHT22;2043;52.184;8.690;2023-04-06T07:00:37;11.20;71.50
4056;DHT22;2043;52.184;8.690;2023-04-06T07:03:04;11.20;71.10
4056;DHT22;2043;52.184;8.690;2023-04-06T07:08:07;11.10;71.00
4056;DHT22;2043;52.184;8.690;2023-04-06T07:10:33;10.80;71.30
4056;DHT22;2043;52.184;8.690;2023-04-06T07:13:01;10.30;72.30
4056;DHT22;2043;52.184;8.690;2023-04-06T07:15:28;9.70;72.90
4056;DHT22;2043;52.184;8.690;2023-04-06T07:17:55;9.10;75.20
4056;DHT22;2043;52.184;8.690;2023-04-06T07:20:22;8.80;76.40
4056;DHT22;2043;52.184;8.690;2023-04-06T07:22:49;8.70;77.20
4056;DHT22;2043;52.184;8.690;2023-04-06T07:25:16;8.90;77.70
4056;DHT22;2043;52.184;8.690;2023-04-06T07:27:43;9.00;77.20
4056;DHT22;2043;52.184;8.690;2023-04-06T07:30:10;8.60;77.30
4056;DHT22;2043;52.184;8.690;2023-04-06T07:32:37;8.60;77.60
4056;DHT22;2043;52.184;8.690;2023-04-06T07:35:04;8.30;78.70
4056;DHT22;2043;52.184;8.690;2023-04-06T07:37:31;8.40;78.70
4056;DHT22;2043;52.184;8.690;2023-04-06T07:39:58;9.50;76.20
4056;DHT22;2043;52.184;8.690;2023-04-06T07:42:25;9.70;75.60
4056;DHT22;2043;52.184;8.690;2023-04-06T07:44:51;9.70;75.30
4056;DHT22;2043;52.184;8.690;2023-04-06T07:47:18;10.00;75.10
4056;DHT22;2043;52.184;8.690;2023-04-06T07:49:45;10.50;73.50
4056;DHT22;2043;52.184;8.690;2023-04-06T07:52:12;11.00;72.20
4056;DHT22;2043;52.184;8.690;2023-04-06T07:54:40;11.20;71.40
4056;DHT22;2043;52.184;8.690;2023-04-06T07:57:07;11.20;71.30
4056;DHT22;2043;52.184;8.690;2023-04-06T07:59:34;11.20;71.00
4056;DHT22;2043;52.184;8.690;2023-04-06T08:02:01;10.80;71.60
4056;DHT22;2043;52.184;8.690;2023-04-06T08:04:28;11.20;71.30
4056;DHT22;2043;52.184;8.690;2023-04-06T08:06:55;11.20;71.30
4056;DHT22;2043;52.184;8.690;2023-04-06T08:09:22;12.00;69.60
4056;DHT22;2043;52.184;8.690;2023-04-06T08:11:49;12.10;69.90
4056;DHT22;2043;52.184;8.690;2023-04-06T08:14:15;12.10;69.90
4056;DHT22;2043;52.184;8.690;2023-04-06T08:16:42;11.60;71.00
4056;DHT22;2043;52.184;8.690;2023-04-06T08:19:09;11.30;70.00
4056;DHT22;2043;52.184;8.690;2023-04-06T08:21:36;11.70;70.70
4056;DHT22;2043;52.184;8.690;2023-04-06T08:24:03;12.00;70.30
4056;DHT22;2043;52.184;8.690;2023-04-06T08:26:30;12.10;69.90
4056;DHT22;2043;52.184;8.690;2023-04-06T08:28:57;12.60;69.30
4056;DHT22;2043;52.184;8.690;2023-04-06T08:31:23;12.60;69.10
4056;DHT22;2043;52.184;8.690;2023-04-06T08:33:51;12.80;66.60
4056;DHT22;2043;52.184;8.690;2023-04-06T08:36:17;12.60;66.50
4056;DHT22;2043;52.184;8.690;2023-04-06T08:38:49;12.70;66.20
4056;DHT22;2043;52.184;8.690;2023-04-06T08:41:16;12.60;64.90
4056;DHT22;2043;52.184;8.690;2023-04-06T08:43:47;12.60;64.90
4056;DHT22;2043;52.184;8.690;2023-04-06T08:46:15;12.70;65.50
4056;DHT22;2043;52.184;8.690;2023-04-06T08:48:43;13.00;64.70
4056;DHT22;2043;52.184;8.690;2023-04-06T08:51:10;13.00;64.00
4056;DHT22;2043;52.184;8.690;2023-04-06T08:53:37;12.70;62.80
4056;DHT22;2043;52.184;8.690;2023-04-06T08:56:05;12.50;63.80
4056;DHT22;2043;52.184;8.690;2023-04-06T08:58:37;12.50;63.80
4056;DHT22;2043;52.184;8.690;2023-04-06T09:01:09;12.30;64.60
4056;DHT22;2043;52.184;8.690;2023-04-06T09:03:39;12.60;64.50
4056;DHT22;2043;52.184;8.690;2023-04-06T09:06:08;12.60;64.40
4056;DHT22;2043;52.184;8.690;2023-04-06T09:08:37;12.50;64.40
4056;DHT22;2043;52.184;8.690;2023-04-06T09:11:05;12.30;64.30
4056;DHT22;2043;52.184;8.690;2023-04-06T09:16:17;12.80;63.90
4056;DHT22;2043;52.184;8.690;2023-04-06T09:18:44;12.60;63.20
4056;DHT22;2043;52.184;8.690;2023-04-06T09:21:11;12.70;64.30
4056;DHT22;2043;52.184;8.690;2023-04-06T09:23:39;12.70;64.00
4056;DHT22;2043;52.184;8.690;2023-04-06T09:26:16;12.80;63.90
4056;DHT22;2043;52.184;8.690;2023-04-06T09:29:04;12.80;63.20
4056;DHT22;2043;52.184;8.690;2023-04-06T09:31:32;12.80;62.90
4056;DHT22;2043;52.184;8.690;2023-04-06T09:34:00;13.00;63.10
4056;DHT22;2043;52.184;8.690;2023-04-06T09:36:37;13.20;63.10
4056;DHT22;2043;52.184;8.690;2023-04-06T09:39:08;13.10;63.50
4056;DHT22;2043;52.184;8.690;2023-04-06T09:41:35;13.20;64.00
4056;DHT22;2043;52.184;8.690;2023-04-06T09:46:41;13.30;62.30
4056;DHT22;2043;52.184;8.690;2023-04-06T09:49:31;13.10;62.80
4056;DHT22;2043;52.184;8.690;2023-04-06T09:52:04;12.90;62.60
4056;DHT22;2043;52.184;8.690;2023-04-06T09:54:35;13.40;62.50
4056;DHT22;2043;52.184;8.690;2023-04-06T09:57:07;13.70;62.40
4056;DHT22;2043;52.184;8.690;2023-04-06T10:00:08;13.70;61.90
4056;DHT22;2043;52.184;8.690;2023-04-06T10:03:02;13.50;62.00
4056;DHT22;2043;52.184;8.690;2023-04-06T10:05:46;13.80;63.00
4056;DHT22;2043;52.184;8.690;2023-04-06T10:08:18;14.30;62.40
4056;DHT22;2043;52.184;8.690;2023-04-06T10:10:46;14.50;62.10
4056;DHT22;2043;52.184;8.690;2023-04-06T10:13:13;14.20;60.70
4056;DHT22;2043;52.184;8.690;2023-04-06T10:15:42;14.00;61.20
4056;DHT22;2043;52.184;8.690;2023-04-06T10:18:09;14.00;63.00
4056;DHT22;2043;52.184;8.690;2023-04-06T10:20:49;14.00;62.00
4056;DHT22;2043;52.184;8.690;2023-04-06T10:23:29;14.30;63.20
4056;DHT22;2043;52.184;8.690;2023-04-06T10:26:00;14.10;61.70
4056;DHT22;2043;52.184;8.690;2023-04-06T10:28:32;14.00;63.30
4056;DHT22;2043;52.184;8.690;2023-04-06T10:31:01;14.00;62.60
4056;DHT22;2043;52.184;8.690;2023-04-06T10:33:28;14.00;62.30
4056;DHT22;2043;52.184;8.690;2023-04-06T10:35:55;14.30;62.70
4056;DHT22;2043;52.184;8.690;2023-04-06T10:38:36;14.60;62.20
4056;DHT22;2043;52.184;8.690;2023-04-06T10:41:10;14.90;63.70
4056;DHT22;2043;52.184;8.690;2023-04-06T10:43:41;14.40;63.50
4056;DHT22;2043;52.184;8.690;2023-04-06T10:46:09;14.90;62.90
4056;DHT22;2043;52.184;8.690;2023-04-06T10:48:44;14.90;62.70
4056;DHT22;2043;52.184;8.690;2023-04-06T10:51:16;14.70;61.00
4056;DHT22;2043;52.184;8.690;2023-04-06T10:53:45;14.90;61.60
4056;DHT22;2043;52.184;8.690;2023-04-06T10:56:16;14.90;61.00
4056;DHT22;2043;52.184;8.690;2023-04-06T10:58:51;14.90;61.20
4056;DHT22;2043;52.184;8.690;2023-04-06T11:01:20;14.50;60.60
4056;DHT22;2043;52.184;8.690;2023-04-06T11:03:49;14.20;62.10
4056;DHT22;2043;52.184;8.690;2023-04-06T11:08:46;14.60;62.70
4056;DHT22;2043;52.184;8.690;2023-04-06T11:11:14;15.00;61.40
4056;DHT22;2043;52.184;8.690;2023-04-06T11:21:18;14.40;60.10
4056;DHT22;2043;52.184;8.690;2023-04-06T11:23:45;14.50;61.20
4056;DHT22;2043;52.184;8.690;2023-04-06T11:26:13;14.60;61.20
4056;DHT22;2043;52.184;8.690;2023-04-06T11:28:43;14.30;60.90
4056;DHT22;2043;52.184;8.690;2023-04-06T11:31:10;14.30;60.80
4056;DHT22;2043;52.184;8.690;2023-04-06T11:33:38;14.50;61.50
4056;DHT22;2043;52.184;8.690;2023-04-06T11:36:05;14.70;62.00
4056;DHT22;2043;52.184;8.690;2023-04-06T11:38:33;14.60;61.50
4056;DHT22;2043;52.184;8.690;2023-04-06T11:41:01;14.70;62.30
4056;DHT22;2043;52.184;8.690;2023-04-06T11:43:31;15.00;61.70
4056;DHT22;2043;52.184;8.690;2023-04-06T11:46:02;14.90;61.30
4056;DHT22;2043;52.184;8.690;2023-04-06T11:48:30;14.50;60.60
4056;DHT22;2043;52.184;8.690;2023-04-06T11:50:58;14.40;61.40
4056;DHT22;2043;52.184;8.690;2023-04-06T11:53:28;14.50;60.90
4056;DHT22;2043;52.184;8.690;2023-04-06T11:55:56;14.60;61.00
4056;DHT22;2043;52.184;8.690;2023-04-06T11:58:23;14.70;60.90
4056;DHT22;2043;52.184;8.690;2023-04-06T12:00:50;14.60;60.70
4056;DHT22;2043;52.184;8.690;2023-04-06T12:03:17;14.80;60.60
4056;DHT22;2043;52.184;8.690;2023-04-06T12:05:44;14.80;60.80
4056;DHT22;2043;52.184;8.690;2023-04-06T12:08:10;15.00;60.60
4056;DHT22;2043;52.184;8.690;2023-04-06T12:10:37;15.20;60.40
4056;DHT22;2043;52.184;8.690;2023-04-06T12:13:04;15.30;60.80
4056;DHT22;2043;52.184;8.690;2023-04-06T12:15:31;15.60;60.00
4056;DHT22;2043;52.184;8.690;2023-04-06T12:17:58;15.00;60.10
4056;DHT22;2043;52.184;8.690;2023-04-06T12:20:25;15.10;61.70
4056;DHT22;2043;52.184;8.690;2023-04-06T12:22:53;15.40;61.40
4056;DHT22;2043;52.184;8.690;2023-04-06T12:25:20;15.50;60.70
4056;DHT22;2043;52.184;8.690;2023-04-06T12:27:47;15.40;60.50
4056;DHT22;2043;52.184;8.690;2023-04-06T12:30:14;15.00;60.40
4056;DHT22;2043;52.184;8.690;2023-04-06T12:32:41;15.00;61.00
4056;DHT22;2043;52.184;8.690;2023-04-06T12:35:09;15.70;60.80
4056;DHT22;2043;52.184;8.690;2023-04-06T12:37:38;15.70;59.60
4056;DHT22;2043;52.184;8.690;2023-04-06T12:40:05;15.60;59.30
4056;DHT22;2043;52.184;8.690;2023-04-06T12:42:32;15.60;60.20
4056;DHT22;2043;52.184;8.690;2023-04-06T12:44:59;15.90;60.90
4056;DHT22;2043;52.184;8.690;2023-04-06T12:47:25;15.70;59.90
4056;DHT22;2043;52.184;8.690;2023-04-06T12:49:53;15.90;59.80
4056;DHT22;2043;52.184;8.690;2023-04-06T12:52:21;15.90;59.60
4056;DHT22;2043;52.184;8.690;2023-04-06T12:54:48;16.30;60.20
4056;DHT22;2043;52.184;8.690;2023-04-06T12:57:16;16.40;60.00
4056;DHT22;2043;52.184;8.690;2023-04-06T12:59:44;16.20;59.20
4056;DHT22;2043;52.184;8.690;2023-04-06T13:02:11;15.80;58.30
4056;DHT22;2043;52.184;8.690;2023-04-06T13:04:38;15.80;58.00
4056;DHT22;2043;52.184;8.690;2023-04-06T13:07:05;15.30;56.80
4056;DHT22;2043;52.184;8.690;2023-04-06T13:09:32;15.50;58.00
4056;DHT22;2043;52.184;8.690;2023-04-06T13:11:59;15.50;57.90
4056;DHT22;2043;52.184;8.690;2023-04-06T13:14:27;15.40;56.60
4056;DHT22;2043;52.184;8.690;2023-04-06T13:16:54;15.50;57.60
4056;DHT22;2043;52.184;8.690;2023-04-06T13:19:21;16.00;58.60
4056;DHT22;2043;52.184;8.690;2023-04-06T13:21:49;16.00;58.60
4056;DHT22;2043;52.184;8.690;2023-04-06T13:24:16;15.80;57.70
4056;DHT22;2043;52.184;8.690;2023-04-06T13:26:43;15.80;57.00
4056;DHT22;2043;52.184;8.690;2023-04-06T13:29:10;15.60;56.00
4056;DHT22;2043;52.184;8.690;2023-04-06T13:31:37;15.60;56.00
4056;DHT22;2043;52.184;8.690;2023-04-06T13:34:05;15.70;56.20
4056;DHT22;2043;52.184;8.690;2023-04-06T13:36:32;16.10;55.10
4056;DHT22;2043;52.184;8.690;2023-04-06T13:38:59;16.20;56.00
4056;DHT22;2043;52.184;8.690;2023-04-06T13:41:26;16.30;55.10
4056;DHT22;2043;52.184;8.690;2023-04-06T13:43:53;15.50;55.60
4056;DHT22;2043;52.184;8.690;2023-04-06T13:46:19;15.40;56.50
4056;DHT22;2043;52.184;8.690;2023-04-06T13:48:47;15.50;56.10
4056;DHT22;2043;52.184;8.690;2023-04-06T13:51:14;15.50;55.50
4056;DHT22;2043;52.184;8.690;2023-04-06T13:53:41;15.60;55.60
4056;DHT22;2043;52.184;8.690;2023-04-06T13:58:36;15.20;54.90
4056;DHT22;2043;52.184;8.690;2023-04-06T14:01:09;15.00;54.30
4056;DHT22;2043;52.184;8.690;2023-04-06T14:03:37;15.20;53.30
4056;DHT22;2043;52.184;8.690;2023-04-06T14:06:13;15.50;53.50
4056;DHT22;2043;52.184;8.690;2023-04-06T14:08:43;15.60;53.30
4056;DHT22;2043;52.184;8.690;2023-04-06T14:11:13;15.80;54.30
4056;DHT22;2043;52.184;8.690;2023-04-06T14:13:40;15.80;54.50
4056;DHT22;2043;52.184;8.690;2023-04-06T14:16:07;15.80;53.50
4056;DHT22;2043;52.184;8.690;2023-04-06T14:18:35;15.80;53.40
4056;DHT22;2043;52.184;8.690;2023-04-06T14:21:03;15.60;55.10
4056;DHT22;2043;52.184;8.690;2023-04-06T14:23:30;15.50;56.00
4056;DHT22;2043;52.184;8.690;2023-04-06T14:26:04;15.50;56.60
4056;DHT22;2043;52.184;8.690;2023-04-06T14:28:35;15.50;55.90
4056;DHT22;2043;52.184;8.690;2023-04-06T14:31:09;15.40;55.10
4056;DHT22;2043;52.184;8.690;2023-04-06T14:33:36;15.50;55.10
4056;DHT22;2043;52.184;8.690;2023-04-06T14:36:04;15.30;54.90
4056;DHT22;2043;52.184;8.690;2023-04-06T14:38:32;15.10;55.90
4056;DHT22;2043;52.184;8.690;2023-04-06T14:40:59;15.00;55.90
4056;DHT22;2043;52.184;8.690;2023-04-06T14:43:26;14.80;56.10
4056;DHT22;2043;52.184;8.690;2023-04-06T14:45:53;14.70;55.80
4056;DHT22;2043;52.184;8.690;2023-04-06T14:48:19;14.90;55.60
4056;DHT22;2043;52.184;8.690;2023-04-06T14:50:56;14.90;55.80
4056;DHT22;2043;52.184;8.690;2023-04-06T14:53:23;14.90;56.20
4056;DHT22;2043;52.184;8.690;2023-04-06T14:55:50;14.80;55.90
4056;DHT22;2043;52.184;8.690;2023-04-06T14:58:21;14.90;57.60
4056;DHT22;2043;52.184;8.690;2023-04-06T15:00:49;14.80;56.50
4056;DHT22;2043;52.184;8.690;2023-04-06T15:03:16;14.70;56.60
4056;DHT22;2043;52.184;8.690;2023-04-06T15:05:43;14.60;56.50
4056;DHT22;2043;52.184;8.690;2023-04-06T15:08:09;14.70;56.10
4056;DHT22;2043;52.184;8.690;2023-04-06T15:10:37;14.80;55.70
4056;DHT22;2043;52.184;8.690;2023-04-06T15:13:04;14.70;56.70
4056;DHT22;2043;52.184;8.690;2023-04-06T15:15:31;14.30;57.20
4056;DHT22;2043;52.184;8.690;2023-04-06T15:17:58;14.30;57.10
4056;DHT22;2043;52.184;8.690;2023-04-06T15:20:29;14.40;57.10
4056;DHT22;2043;52.184;8.690;2023-04-06T15:22:56;14.50;57.40
4056;DHT22;2043;52.184;8.690;2023-04-06T15:25:23;14.50;58.10
4056;DHT22;2043;52.184;8.690;2023-04-06T15:27:50;14.40;58.20
4056;DHT22;2043;52.184;8.690;2023-04-06T15:30:16;14.30;58.80
4056;DHT22;2043;52.184;8.690;2023-04-06T15:32:55;14.30;59.30
4056;DHT22;2043;52.184;8.690;2023-04-06T15:35:22;14.30;59.10
4056;DHT22;2043;52.184;8.690;2023-04-06T15:37:49;14.30;59.20
4056;DHT22;2043;52.184;8.690;2023-04-06T15:40:16;14.30;60.60
4056;DHT22;2043;52.184;8.690;2023-04-06T15:42:43;14.40;60.30
4056;DHT22;2043;52.184;8.690;2023-04-06T15:45:10;14.30;59.50
4056;DHT22;2043;52.184;8.690;2023-04-06T15:47:38;14.10;59.40
4056;DHT22;2043;52.184;8.690;2023-04-06T15:50:05;14.10;59.50
4056;DHT22;2043;52.184;8.690;2023-04-06T15:52:34;14.20;60.30
4056;DHT22;2043;52.184;8.690;2023-04-06T15:55:04;14.10;60.70
4056;DHT22;2043;52.184;8.690;2023-04-06T15:57:31;14.20;60.20
4056;DHT22;2043;52.184;8.690;2023-04-06T15:59:58;14.20;61.00
4056;DHT22;2043;52.184;8.690;2023-04-06T16:02:25;14.10;60.30
4056;DHT22;2043;52.184;8.690;2023-04-06T16:04:59;14.20;60.70
4056;DHT22;2043;52.184;8.690;2023-04-06T16:07:30;14.10;60.40
4056;DHT22;2043;52.184;8.690;2023-04-06T16:09:57;14.00;61.20
4056;DHT22;2043;52.184;8.690;2023-04-06T16:12:24;13.90;61.40
4056;DHT22;2043;52.184;8.690;2023-04-06T16:14:54;13.90;61.80
4056;DHT22;2043;52.184;8.690;2023-04-06T16:17:21;13.90;61.50
4056;DHT22;2043;52.184;8.690;2023-04-06T16:19:48;13.90;61.50
4056;DHT22;2043;52.184;8.690;2023-04-06T16:22:15;13.90;61.80
4056;DHT22;2043;52.184;8.690;2023-04-06T16:24:42;13.90;61.70
4056;DHT22;2043;52.184;8.690;2023-04-06T16:27:08;13.90;61.30
4056;DHT22;2043;52.184;8.690;2023-04-06T16:29:36;13.90;62.10
4056;DHT22;2043;52.184;8.690;2023-04-06T16:32:03;13.90;61.80
4056;DHT22;2043;52.184;8.690;2023-04-06T16:34:33;13.90;62.60
4056;DHT22;2043;52.184;8.690;2023-04-06T16:36:59;13.90;62.70
4056;DHT22;2043;52.184;8.690;2023-04-06T16:39:27;14.00;62.80
4056;DHT22;2043;52.184;8.690;2023-04-06T16:41:54;13.90;63.20
4056;DHT22;2043;52.184;8.690;2023-04-06T16:44:22;13.90;62.90
4056;DHT22;2043;52.184;8.690;2023-04-06T16:49:16;13.80;61.90
4056;DHT22;2043;52.184;8.690;2023-04-06T16:51:45;13.80;62.10
4056;DHT22;2043;52.184;8.690;2023-04-06T16:54:12;13.70;62.30
4056;DHT22;2043;52.184;8.690;2023-04-06T16:56:39;13.70;62.10
4056;DHT22;2043;52.184;8.690;2023-04-06T16:59:07;13.70;61.80
4056;DHT22;2043;52.184;8.690;2023-04-06T17:01:34;13.70;62.20
4056;DHT22;2043;52.184;8.690;2023-04-06T17:04:01;13.60;62.50
4056;DHT22;2043;52.184;8.690;2023-04-06T17:06:28;13.60;63.80
4056;DHT22;2043;52.184;8.690;2023-04-06T17:08:55;13.50;64.90
4056;DHT22;2043;52.184;8.690;2023-04-06T17:11:22;13.50;65.70
4056;DHT22;2043;52.184;8.690;2023-04-06T17:14:01;13.50;65.80
4056;DHT22;2043;52.184;8.690;2023-04-06T17:16:28;13.40;65.70
4056;DHT22;2043;52.184;8.690;2023-04-06T17:18:56;13.40;65.80
4056;DHT22;2043;52.184;8.690;2023-04-06T17:21:23;13.30;66.10
4056;DHT22;2043;52.184;8.690;2023-04-06T17:23:50;13.20;67.20
4056;DHT22;2043;52.184;8.690;2023-04-06T17:28:44;13.10;67.50
4056;DHT22;2043;52.184;8.690;2023-04-06T17:31:11;13.00;67.00
4056;DHT22;2043;52.184;8.690;2023-04-06T17:33:39;12.90;67.10
4056;DHT22;2043;52.184;8.690;2023-04-06T17:36:07;12.90;68.70
4056;DHT22;2043;52.184;8.690;2023-04-06T17:38:38;12.70;68.20
4056;DHT22;2043;52.184;8.690;2023-04-06T17:41:10;12.60;69.30
4056;DHT22;2043;52.184;8.690;2023-04-06T17:43:37;12.50;70.00
4056;DHT22;2043;52.184;8.690;2023-04-06T17:46:04;12.40;70.20
4056;DHT22;2043;52.184;8.690;2023-04-06T17:48:31;12.30;72.10
4056;DHT22;2043;52.184;8.690;2023-04-06T17:50:58;12.10;73.30
4056;DHT22;2043;52.184;8.690;2023-04-06T17:53:24;12.00;74.30
4056;DHT22;2043;52.184;8.690;2023-04-06T17:55:52;11.80;76.10
4056;DHT22;2043;52.184;8.690;2023-04-06T17:58:18;11.70;77.40
4056;DHT22;2043;52.184;8.690;2023-04-06T18:00:45;11.50;78.20
4056;DHT22;2043;52.184;8.690;2023-04-06T18:03:12;11.40;78.90
4056;DHT22;2043;52.184;8.690;2023-04-06T18:05:39;11.40;78.40
4056;DHT22;2043;52.184;8.690;2023-04-06T18:08:06;11.40;78.50
4056;DHT22;2043;52.184;8.690;2023-04-06T18:10:36;11.50;79.40
4056;DHT22;2043;52.184;8.690;2023-04-06T18:13:03;11.50;75.20
4056;DHT22;2043;52.184;8.690;2023-04-06T18:15:30;11.60;73.80
4056;DHT22;2043;52.184;8.690;2023-04-06T18:17:57;11.70;72.20
4056;DHT22;2043;52.184;8.690;2023-04-06T18:20:24;11.80;72.40